createdAt,value
2023-05-21T00:00:17.613Z,42.86
2023-05-21T00:02:44.298Z,42.84
2023-05-21T00:05:13.683Z,42.83
2023-05-21T00:07:41.242Z,42.80
2023-05-21T00:10:07.862Z,42.82
2023-05-21T00:12:34.440Z,42.80
2023-05-21T00:15:01.044Z,42.84
2023-05-21T00:17:27.676Z,42.66
2023-05-21T00:19:54.311Z,42.71
2023-05-21T00:22:20.888Z,42.87
2023-05-21T00:24:47.462Z,43.09
2023-05-21T00:27:13.989Z,42.84
2023-05-21T00:29:41.348Z,42.98
2023-05-21T00:32:09.514Z,42.99
2023-05-21T00:34:36.140Z,42.89
2023-05-21T00:37:02.698Z,43.16
2023-05-21T00:39:29.239Z,42.64
2023-05-21T00:41:55.764Z,42.77
2023-05-21T00:44:22.359Z,42.96
2023-05-21T00:46:48.975Z,42.85
2023-05-21T00:49:15.529Z,42.99
2023-05-21T00:51:42.110Z,42.90
2023-05-21T00:54:08.633Z,42.58
2023-05-21T00:56:35.206Z,42.96
2023-05-21T00:59:01.833Z,42.96
2023-05-21T01:01:28.400Z,42.81
2023-05-21T01:03:55.026Z,42.74
2023-05-21T01:06:21.580Z,42.76
2023-05-21T01:08:48.096Z,42.89
2023-05-21T01:11:14.603Z,42.82
2023-05-21T01:13:41.055Z,42.79
2023-05-21T01:16:07.568Z,42.93
2023-05-21T01:18:34.042Z,42.67
2023-05-21T01:21:00.479Z,42.80
2023-05-21T01:23:26.993Z,42.70
2023-05-21T01:25:53.533Z,42.57
2023-05-21T01:28:20.089Z,42.81
2023-05-21T01:30:46.615Z,42.60
2023-05-21T01:33:13.516Z,42.68
2023-05-21T01:35:40.541Z,42.46
2023-05-21T01:38:07.093Z,42.72
2023-05-21T01:40:33.659Z,42.86
2023-05-21T01:43:00.276Z,42.86
2023-05-21T01:45:26.792Z,42.68
2023-05-21T01:47:53.317Z,42.73
2023-05-21T01:50:19.846Z,42.89
2023-05-21T01:52:46.311Z,42.85
2023-05-21T01:55:12.865Z,42.94
2023-05-21T01:57:39.379Z,42.69
2023-05-21T02:00:05.973Z,42.89
2023-05-21T02:02:32.559Z,42.73
2023-05-21T02:04:59.112Z,42.81
2023-05-21T02:07:25.624Z,42.78
2023-05-21T02:09:52.132Z,42.48
2023-05-21T02:12:18.681Z,42.75
2023-05-21T02:14:45.199Z,42.86
2023-05-21T02:17:11.730Z,42.73
2023-05-21T02:19:38.238Z,42.82
2023-05-21T02:22:04.819Z,42.96
2023-05-21T02:24:31.411Z,42.90
2023-05-21T02:26:57.998Z,42.89
2023-05-21T02:29:24.572Z,42.89
2023-05-21T02:31:51.099Z,42.92
2023-05-21T02:34:17.972Z,42.75
2023-05-21T02:36:44.597Z,42.84
2023-05-21T02:39:11.144Z,43.05
2023-05-21T02:41:37.708Z,42.76
2023-05-21T02:44:04.311Z,42.83
2023-05-21T02:46:30.960Z,42.81
2023-05-21T02:48:57.568Z,42.78
2023-05-21T02:51:24.140Z,42.82
2023-05-21T02:53:50.717Z,42.55
2023-05-21T02:56:20.393Z,42.25
2023-05-21T02:58:47.007Z,42.45
2023-05-21T03:01:13.575Z,42.58
2023-05-21T03:03:40.199Z,42.92
2023-05-21T03:06:06.709Z,42.52
2023-05-21T03:08:33.197Z,42.72
2023-05-21T03:10:59.706Z,42.70
2023-05-21T03:13:26.288Z,42.63
2023-05-21T03:15:52.835Z,42.89
2023-05-21T03:18:19.363Z,42.63
2023-05-21T03:20:45.942Z,43.05
2023-05-21T03:23:14.223Z,42.70
2023-05-21T03:25:42.833Z,42.83
2023-05-21T03:28:09.397Z,42.80
2023-05-21T03:30:36.007Z,42.70
2023-05-21T03:33:02.617Z,42.66
2023-05-21T03:35:29.214Z,42.62
2023-05-21T03:37:55.741Z,42.78
2023-05-21T03:40:22.198Z,42.69
2023-05-21T03:42:48.689Z,42.71
2023-05-21T03:45:15.212Z,43.03
2023-05-21T03:47:41.858Z,42.71
2023-05-21T03:50:08.607Z,42.60
2023-05-21T03:52:35.159Z,42.56
2023-05-21T03:55:01.725Z,43.04
2023-05-21T03:57:28.247Z,42.69
2023-05-21T03:59:54.762Z,42.51
2023-05-21T04:02:21.407Z,42.44
2023-05-21T04:04:48.182Z,42.40
2023-05-21T04:07:14.888Z,42.48
2023-05-21T04:09:41.480Z,42.55
2023-05-21T04:12:08.021Z,42.80
2023-05-21T04:14:34.561Z,42.42
2023-05-21T04:17:01.115Z,42.64
2023-05-21T04:19:27.820Z,42.47
2023-05-21T04:21:54.392Z,42.46
2023-05-21T04:24:20.822Z,42.55
2023-05-21T04:26:47.324Z,42.59
2023-05-21T04:29:13.886Z,42.37
2023-05-21T04:31:40.440Z,42.49
2023-05-21T04:34:07.064Z,42.60
2023-05-21T04:36:33.651Z,42.55
2023-05-21T04:39:00.170Z,42.35
2023-05-21T04:41:26.693Z,42.28
2023-05-21T04:43:56.072Z,42.47
2023-05-21T04:46:22.619Z,42.07
2023-05-21T04:48:49.260Z,42.42
2023-05-21T04:51:15.823Z,42.52
2023-05-21T04:53:42.431Z,42.49
2023-05-21T04:56:09.020Z,42.56
2023-05-21T04:58:35.627Z,42.38
2023-05-21T05:01:02.227Z,42.05
2023-05-21T05:03:28.960Z,42.41
2023-05-21T05:05:55.578Z,42.43
2023-05-21T05:08:22.098Z,42.56
2023-05-21T05:10:48.682Z,42.65
2023-05-21T05:13:15.264Z,42.50
2023-05-21T05:15:41.780Z,42.06
2023-05-21T05:18:08.359Z,42.01
2023-05-21T05:20:35.021Z,42.35
2023-05-21T05:23:01.544Z,41.75
2023-05-21T05:25:28.073Z,41.65
2023-05-21T05:27:54.530Z,41.81
2023-05-21T05:30:21.099Z,41.67
2023-05-21T05:32:47.736Z,42.17
2023-05-21T05:35:14.306Z,42.26
2023-05-21T05:37:41.266Z,42.22
2023-05-21T05:40:07.889Z,42.01
2023-05-21T05:42:34.438Z,42.47
2023-05-21T05:45:00.957Z,42.37
2023-05-21T05:47:27.529Z,42.69
2023-05-21T05:49:54.065Z,42.94
2023-05-21T05:52:20.655Z,43.05
2023-05-21T05:54:47.304Z,43.11
2023-05-21T05:57:14.007Z,42.91
2023-05-21T05:59:40.555Z,43.29
2023-05-21T06:02:07.149Z,43.66
2023-05-21T06:04:33.730Z,42.94
2023-05-21T06:07:00.198Z,43.01
2023-05-21T06:09:26.653Z,42.80
2023-05-21T06:11:53.124Z,42.68
2023-05-21T06:14:19.581Z,42.45
2023-05-21T06:16:46.145Z,43.19
2023-05-21T06:19:12.820Z,43.40
2023-05-21T06:21:39.355Z,44.01
2023-05-21T06:24:05.923Z,44.46
2023-05-21T06:26:32.508Z,44.21
2023-05-21T06:28:59.129Z,44.06
2023-05-21T06:31:25.653Z,43.88
2023-05-21T06:33:52.344Z,43.70
2023-05-21T06:36:18.953Z,43.70
2023-05-21T06:38:45.447Z,43.58
2023-05-21T06:41:12.038Z,43.50
2023-05-21T06:43:38.723Z,43.80
2023-05-21T06:46:05.290Z,43.70
2023-05-21T06:48:31.858Z,43.91
2023-05-21T06:50:58.351Z,44.17
2023-05-21T06:53:24.851Z,44.08
2023-05-21T06:55:51.444Z,43.92
2023-05-21T06:58:18.040Z,43.78
2023-05-21T07:00:44.539Z,44.04
2023-05-21T07:03:11.183Z,43.94
2023-05-21T07:05:38.048Z,43.67
2023-05-21T07:08:04.969Z,43.46
2023-05-21T07:10:31.574Z,43.47
2023-05-21T07:12:58.079Z,44.07
2023-05-21T07:15:24.595Z,43.58
2023-05-21T07:17:51.276Z,43.95
2023-05-21T07:20:17.884Z,44.24
2023-05-21T07:22:44.495Z,44.25
2023-05-21T07:25:11.077Z,44.27
2023-05-21T07:27:37.722Z,44.36
2023-05-21T07:30:04.251Z,44.46
2023-05-21T07:32:30.774Z,44.30
2023-05-21T07:34:57.375Z,44.26
2023-05-21T07:37:23.909Z,44.34
2023-05-21T07:39:50.533Z,44.17
2023-05-21T07:42:17.145Z,43.66
2023-05-21T07:44:43.611Z,44.82
2023-05-21T07:47:10.122Z,45.30
2023-05-21T07:49:36.667Z,43.60
2023-05-21T07:52:03.401Z,43.95
2023-05-21T07:54:29.932Z,44.43
2023-05-21T07:56:56.567Z,44.66
2023-05-21T07:59:23.094Z,45.81
2023-05-21T08:01:49.710Z,45.89
2023-05-21T08:04:16.470Z,45.91
2023-05-21T08:06:43.076Z,45.66
2023-05-21T08:09:09.703Z,46.10
2023-05-21T08:11:36.178Z,46.63
2023-05-21T08:14:02.778Z,46.95
2023-05-21T08:16:29.338Z,46.97
2023-05-21T08:18:56.024Z,46.86
2023-05-21T08:21:22.693Z,46.85
2023-05-21T08:23:49.273Z,46.37
2023-05-21T08:26:15.832Z,46.24
2023-05-21T08:28:42.416Z,46.39
2023-05-21T08:31:09.009Z,46.38
2023-05-21T08:33:35.611Z,46.32
2023-05-21T08:36:02.181Z,46.23
2023-05-21T08:38:30.251Z,46.20
2023-05-21T08:40:57.100Z,46.56
2023-05-21T08:43:23.618Z,46.31
2023-05-21T08:45:50.180Z,45.91
2023-05-21T08:48:16.732Z,46.03
2023-05-21T08:50:43.188Z,45.86
2023-05-21T08:53:15.818Z,45.87
2023-05-21T08:55:51.665Z,45.37
2023-05-21T08:58:18.280Z,45.59
2023-05-21T09:00:44.856Z,46.06
2023-05-21T09:03:11.580Z,45.56
2023-05-21T09:05:38.352Z,46.12
2023-05-21T09:08:05.047Z,46.07
2023-05-21T09:10:31.561Z,45.79
2023-05-21T09:12:58.080Z,45.57
2023-05-21T09:15:24.554Z,45.25
2023-05-21T09:17:51.095Z,45.48
2023-05-21T09:20:17.595Z,45.26
2023-05-21T09:22:44.146Z,45.33
2023-05-21T09:25:10.673Z,45.05
2023-05-21T09:27:37.161Z,45.01
2023-05-21T09:30:03.738Z,45.24
2023-05-21T09:32:30.241Z,44.91
2023-05-21T09:34:56.816Z,44.64
2023-05-21T09:37:27.445Z,44.93
2023-05-21T09:39:54.359Z,44.93
2023-05-21T09:42:20.936Z,44.46
2023-05-21T09:44:47.405Z,44.51
2023-05-21T09:47:13.944Z,44.39
2023-05-21T09:49:40.484Z,44.40
2023-05-21T09:52:06.954Z,44.81
2023-05-21T09:54:33.443Z,44.38
2023-05-21T09:56:59.892Z,44.80
2023-05-21T09:59:26.416Z,44.82
2023-05-21T10:01:53.109Z,44.58
2023-05-21T10:04:19.906Z,44.61
2023-05-21T10:06:47.612Z,44.54
2023-05-21T10:09:14.088Z,44.63
2023-05-21T10:11:40.592Z,44.58
2023-05-21T10:14:07.144Z,45.30
2023-05-21T10:16:33.721Z,45.85
2023-05-21T10:19:00.400Z,45.12
2023-05-21T10:21:26.962Z,45.67
2023-05-21T10:23:53.499Z,45.41
2023-05-21T10:26:20.089Z,45.12
2023-05-21T10:28:46.657Z,45.39
2023-05-21T10:31:13.155Z,45.95
2023-05-21T10:33:39.738Z,45.63
2023-05-21T10:36:06.301Z,45.64
2023-05-21T10:38:32.927Z,44.96
2023-05-21T10:40:59.480Z,44.72
2023-05-21T10:43:26.003Z,45.33
2023-05-21T10:45:52.495Z,45.13
2023-05-21T10:48:21.983Z,44.59
2023-05-21T10:50:48.481Z,44.95
2023-05-21T10:53:14.990Z,44.97
2023-05-21T10:55:41.608Z,45.46
2023-05-21T10:58:08.341Z,44.94
2023-05-21T11:00:34.948Z,45.12
2023-05-21T11:03:01.637Z,45.43
2023-05-21T11:05:28.232Z,44.95
2023-05-21T11:07:54.748Z,45.51
2023-05-21T11:10:21.255Z,45.14
2023-05-21T11:12:47.789Z,45.32
2023-05-21T11:15:14.332Z,45.60
2023-05-21T11:17:40.896Z,45.67
2023-05-21T11:20:07.489Z,45.19
2023-05-21T11:22:33.957Z,45.13
2023-05-21T11:25:00.515Z,44.89
2023-05-21T11:27:27.059Z,45.42
2023-05-21T11:29:53.620Z,45.11
2023-05-21T11:32:20.204Z,44.88
2023-05-21T11:34:49.892Z,45.22
2023-05-21T11:37:16.445Z,45.14
2023-05-21T11:39:42.941Z,45.04
2023-05-21T11:42:09.407Z,45.10
2023-05-21T11:44:35.947Z,45.50
2023-05-21T11:47:02.458Z,45.05
2023-05-21T11:49:28.985Z,44.85
2023-05-21T11:51:55.529Z,44.52
2023-05-21T11:54:22.000Z,44.68
2023-05-21T11:56:48.480Z,44.43
2023-05-21T11:59:16.685Z,44.30
2023-05-21T12:01:45.067Z,44.27
2023-05-21T12:04:11.629Z,44.01
2023-05-21T12:06:38.201Z,44.11
2023-05-21T12:09:04.669Z,43.97
2023-05-21T12:11:31.147Z,44.40
2023-05-21T12:13:57.715Z,44.55
2023-05-21T12:16:24.311Z,44.43
2023-05-21T12:18:50.942Z,44.18
2023-05-21T12:21:17.477Z,44.07
2023-05-21T12:23:44.114Z,44.07
2023-05-21T12:26:10.752Z,43.91
2023-05-21T12:28:37.376Z,43.83
2023-05-21T12:31:03.964Z,43.98
2023-05-21T12:33:30.543Z,43.82
2023-05-21T12:35:57.208Z,43.92
2023-05-21T12:38:23.707Z,43.98
2023-05-21T12:40:50.224Z,44.05
2023-05-21T12:43:16.828Z,43.78
2023-05-21T12:45:43.445Z,43.97
2023-05-21T12:48:10.177Z,44.12
2023-05-21T12:50:37.001Z,44.37
2023-05-21T12:53:03.562Z,43.64
2023-05-21T12:55:30.119Z,44.12
2023-05-21T12:57:56.702Z,44.28
2023-05-21T13:00:23.207Z,43.89
2023-05-21T13:02:49.761Z,43.83
2023-05-21T13:05:16.570Z,43.85
2023-05-21T13:07:43.495Z,43.84
2023-05-21T13:10:10.093Z,44.15
2023-05-21T13:12:36.779Z,43.82
2023-05-21T13:15:03.356Z,44.07
2023-05-21T13:17:29.863Z,43.76
2023-05-21T13:19:56.418Z,43.58
2023-05-21T13:22:22.925Z,43.66
2023-05-21T13:24:49.459Z,43.60
2023-05-21T13:27:16.019Z,43.42
2023-05-21T13:29:42.606Z,43.19
2023-05-21T13:32:09.109Z,43.74
2023-05-21T13:34:35.643Z,43.52
2023-05-21T13:37:02.117Z,43.26
2023-05-21T13:39:28.687Z,43.49
2023-05-21T13:41:55.204Z,43.78
2023-05-21T13:44:21.721Z,43.56
2023-05-21T13:46:48.326Z,43.45
2023-05-21T13:49:14.920Z,43.27
2023-05-21T13:51:41.499Z,42.95
2023-05-21T13:54:08.081Z,43.35
2023-05-21T13:56:34.592Z,43.05
2023-05-21T13:59:01.061Z,43.03
2023-05-21T14:01:27.695Z,43.16
2023-05-21T14:03:54.303Z,42.40
2023-05-21T14:06:23.645Z,42.59
2023-05-21T14:08:50.133Z,42.34
2023-05-21T14:11:16.639Z,42.75
2023-05-21T14:13:43.194Z,42.55
2023-05-21T14:16:09.663Z,42.16
2023-05-21T14:18:36.405Z,41.96
2023-05-21T14:21:02.972Z,41.37
2023-05-21T14:23:29.540Z,41.99
2023-05-21T14:25:56.140Z,42.04
2023-05-21T14:28:22.650Z,41.77
2023-05-21T14:30:49.142Z,42.01
2023-05-21T14:33:15.771Z,41.66
2023-05-21T14:35:42.367Z,42.33
2023-05-21T14:38:08.919Z,41.92
2023-05-21T14:40:35.524Z,42.34
2023-05-21T14:43:02.113Z,42.40
2023-05-21T14:45:28.657Z,42.27
2023-05-21T14:47:55.235Z,42.05
2023-05-21T14:50:21.915Z,41.92
2023-05-21T14:52:48.425Z,41.88
2023-05-21T14:55:14.891Z,41.67
2023-05-21T14:57:41.357Z,41.58
2023-05-21T15:00:07.871Z,41.18
2023-05-21T15:02:34.423Z,41.37
2023-05-21T15:05:01.156Z,41.11
2023-05-21T15:07:27.701Z,40.87
2023-05-21T15:09:54.187Z,40.94
2023-05-21T15:12:20.716Z,41.24
2023-05-21T15:14:47.222Z,41.16
2023-05-21T15:17:13.765Z,41.02
2023-05-21T15:19:42.682Z,41.00
2023-05-21T15:22:09.283Z,40.84
2023-05-21T15:24:35.795Z,40.62
2023-05-21T15:27:02.262Z,40.22
2023-05-21T15:29:28.782Z,40.34
2023-05-21T15:31:55.306Z,40.06
2023-05-21T15:34:21.907Z,40.33
2023-05-21T15:36:48.508Z,39.79
2023-05-21T15:39:15.064Z,39.79
2023-05-21T15:41:41.644Z,39.30
2023-05-21T15:44:08.115Z,39.34
2023-05-21T15:46:34.746Z,39.14
2023-05-21T15:49:01.288Z,38.57
2023-05-21T15:51:27.849Z,38.40
2023-05-21T15:53:55.792Z,37.76
2023-05-21T15:56:22.380Z,37.91
2023-05-21T15:58:48.953Z,37.66
2023-05-21T16:01:15.502Z,36.72
2023-05-21T16:03:42.161Z,36.29
2023-05-21T16:06:08.770Z,36.12
2023-05-21T16:08:35.374Z,36.44
2023-05-21T16:11:01.879Z,36.15
2023-05-21T16:13:28.466Z,36.01
2023-05-21T16:15:55.131Z,36.30
2023-05-21T16:18:21.623Z,35.96
2023-05-21T16:20:48.143Z,36.39
2023-05-21T16:23:14.644Z,35.89
2023-05-21T16:25:41.105Z,35.71
2023-05-21T16:28:07.639Z,35.80
2023-05-21T16:30:34.181Z,35.98
2023-05-21T16:33:00.752Z,36.07
2023-05-21T16:35:27.349Z,37.20
2023-05-21T16:37:53.884Z,37.47
2023-05-21T16:40:20.429Z,38.25
2023-05-21T16:42:46.949Z,37.62
2023-05-21T16:45:13.626Z,38.34
2023-05-21T16:47:40.193Z,38.27
2023-05-21T16:50:09.609Z,38.00
2023-05-21T16:52:36.198Z,38.21
2023-05-21T16:55:02.719Z,38.69
2023-05-21T16:57:29.272Z,38.87
2023-05-21T16:59:55.889Z,39.20
2023-05-21T17:02:22.568Z,39.36
2023-05-21T17:04:49.126Z,39.37
2023-05-21T17:07:15.835Z,39.66
2023-05-21T17:09:42.390Z,39.95
2023-05-21T17:12:08.893Z,40.48
2023-05-21T17:14:36.651Z,40.38
2023-05-21T17:17:04.272Z,40.48
2023-05-21T17:19:30.990Z,40.49
2023-05-21T17:21:57.565Z,40.79
2023-05-21T17:24:24.116Z,40.50
2023-05-21T17:26:50.618Z,40.50
2023-05-21T17:29:17.091Z,41.10
2023-05-21T17:31:43.659Z,40.91
2023-05-21T17:34:10.263Z,41.51
2023-05-21T17:36:36.778Z,41.39
2023-05-21T17:39:03.324Z,41.44
2023-05-21T17:41:29.788Z,41.24
2023-05-21T17:43:56.276Z,41.38
2023-05-21T17:46:22.863Z,41.73
2023-05-21T17:48:49.364Z,41.64
2023-05-21T17:51:15.947Z,41.71
2023-05-21T17:53:42.436Z,41.39
2023-05-21T17:56:08.980Z,42.08
2023-05-21T17:58:35.476Z,42.01
2023-05-21T18:01:02.009Z,42.09
2023-05-21T18:03:28.597Z,42.48
2023-05-21T18:05:55.148Z,42.59
2023-05-21T18:08:23.823Z,42.72
2023-05-21T18:10:50.376Z,42.60
2023-05-21T18:13:16.985Z,43.08
2023-05-21T18:15:43.608Z,42.81
2023-05-21T18:18:10.240Z,43.03
2023-05-21T18:20:37.074Z,43.39
2023-05-21T18:23:03.831Z,43.26
2023-05-21T18:25:30.368Z,43.58
2023-05-21T18:27:56.938Z,43.78
2023-05-21T18:30:23.542Z,43.49
2023-05-21T18:32:50.178Z,43.27
2023-05-21T18:35:16.985Z,43.86
2023-05-21T18:37:43.666Z,43.68
2023-05-21T18:40:10.226Z,43.66
2023-05-21T18:42:37.985Z,43.68
2023-05-21T18:45:04.597Z,43.72
2023-05-21T18:47:31.128Z,43.81
2023-05-21T18:49:57.765Z,43.68
2023-05-21T18:52:24.405Z,43.79
2023-05-21T18:54:50.970Z,43.90
2023-05-21T18:57:17.477Z,43.59
2023-05-21T18:59:44.004Z,43.72
2023-05-21T19:02:10.800Z,43.77
2023-05-21T19:04:37.544Z,44.05
2023-05-21T19:07:04.191Z,43.97
2023-05-21T19:09:30.858Z,44.13
2023-05-21T19:11:57.465Z,43.57
2023-05-21T19:14:24.075Z,43.61
2023-05-21T19:16:50.649Z,43.79
2023-05-21T19:19:17.241Z,44.22
2023-05-21T19:21:43.842Z,43.89
2023-05-21T19:24:10.409Z,43.98
2023-05-21T19:26:37.003Z,43.95
2023-05-21T19:29:03.492Z,43.88
2023-05-21T19:31:30.081Z,44.17
2023-05-21T19:33:56.730Z,44.02
2023-05-21T19:36:23.388Z,44.11
2023-05-21T19:38:50.087Z,44.24
2023-05-21T19:41:16.761Z,44.18
2023-05-21T19:43:43.233Z,44.03
2023-05-21T19:46:09.866Z,44.14
2023-05-21T19:48:36.489Z,43.96
2023-05-21T19:51:02.994Z,43.78
2023-05-21T19:53:29.562Z,44.18
2023-05-21T19:55:56.054Z,43.95
2023-05-21T19:58:22.618Z,44.34
2023-05-21T20:00:49.197Z,44.20
2023-05-21T20:03:15.815Z,44.15
2023-05-21T20:05:42.452Z,44.06
2023-05-21T20:08:08.931Z,43.77
2023-05-21T20:10:35.397Z,43.71
2023-05-21T20:13:02.004Z,44.29
2023-05-21T20:15:28.548Z,44.25
2023-05-21T20:17:55.026Z,44.19
2023-05-21T20:20:21.586Z,44.02
2023-05-21T20:22:48.151Z,44.48
2023-05-21T20:25:14.665Z,44.79
2023-05-21T20:27:41.139Z,44.90
2023-05-21T20:30:07.750Z,44.42
2023-05-21T20:32:34.319Z,44.46
2023-05-21T20:35:03.419Z,44.87
2023-05-21T20:37:30.168Z,44.85
2023-05-21T20:39:56.743Z,45.16
2023-05-21T20:42:23.342Z,45.26
2023-05-21T20:44:49.809Z,45.29
2023-05-21T20:47:16.339Z,45.56
2023-05-21T20:49:42.902Z,45.31
2023-05-21T20:52:09.396Z,45.62
2023-05-21T20:54:35.900Z,45.22
2023-05-21T20:57:02.510Z,45.08
2023-05-21T20:59:29.023Z,45.38
2023-05-21T21:01:55.581Z,45.45
2023-05-21T21:04:22.342Z,45.37
2023-05-21T21:06:48.974Z,45.89
2023-05-21T21:09:15.526Z,45.58
2023-05-21T21:11:42.006Z,45.74
2023-05-21T21:14:08.554Z,45.67
2023-05-21T21:16:35.207Z,45.54
2023-05-21T21:19:01.857Z,45.57
2023-05-21T21:21:28.448Z,45.76
2023-05-21T21:23:54.992Z,46.04
2023-05-21T21:26:21.496Z,45.67
2023-05-21T21:28:47.958Z,45.67
2023-05-21T21:31:14.542Z,45.94
2023-05-21T21:33:41.106Z,45.82
2023-05-21T21:36:07.727Z,45.78
2023-05-21T21:38:34.294Z,45.68
2023-05-21T21:41:00.944Z,46.08
2023-05-21T21:43:27.547Z,46.25
2023-05-21T21:45:54.154Z,46.20
2023-05-21T21:48:20.779Z,46.13
2023-05-21T21:50:47.284Z,46.38
2023-05-21T21:53:13.828Z,45.75
2023-05-21T21:55:40.357Z,45.93
2023-05-21T21:58:07.025Z,46.02
2023-05-21T22:00:33.676Z,45.87
2023-05-21T22:03:00.399Z,45.99
2023-05-21T22:05:27.052Z,46.01
2023-05-21T22:07:53.650Z,46.20
2023-05-21T22:10:20.231Z,45.69
2023-05-21T22:12:46.784Z,45.74
2023-05-21T22:15:13.412Z,45.60
2023-05-21T22:17:40.093Z,46.13
2023-05-21T22:20:06.687Z,45.83
2023-05-21T22:22:33.348Z,45.87
2023-05-21T22:24:59.900Z,45.94
2023-05-21T22:27:26.497Z,45.92
2023-05-21T22:29:53.075Z,45.86
2023-05-21T22:32:19.726Z,45.73
2023-05-21T22:34:46.327Z,45.55
2023-05-21T22:37:12.920Z,45.78
2023-05-21T22:39:39.530Z,45.96
2023-05-21T22:42:06.089Z,45.86
2023-05-21T22:44:32.680Z,45.83
2023-05-21T22:46:59.320Z,45.78
2023-05-21T22:49:25.927Z,46.26
2023-05-21T22:51:52.526Z,45.88
2023-05-21T22:54:19.053Z,46.05
2023-05-21T22:56:45.660Z,45.41
2023-05-21T22:59:12.186Z,45.68
2023-05-21T23:01:38.783Z,45.83
2023-05-21T23:04:05.284Z,46.07
2023-05-21T23:06:31.862Z,45.38
2023-05-21T23:08:58.445Z,45.60
2023-05-21T23:11:25.084Z,45.73
2023-05-21T23:13:51.627Z,45.99
2023-05-21T23:16:18.276Z,45.95
2023-05-21T23:18:44.871Z,45.96
2023-05-21T23:21:11.466Z,45.46
2023-05-21T23:23:37.997Z,46.12
2023-05-21T23:26:04.464Z,45.53
2023-05-21T23:28:30.993Z,45.45
2023-05-21T23:30:57.643Z,45.41
2023-05-21T23:33:24.225Z,45.78
2023-05-21T23:35:50.798Z,45.38
2023-05-21T23:38:17.320Z,45.47
2023-05-21T23:40:43.877Z,45.73
2023-05-21T23:43:10.441Z,45.66
2023-05-21T23:45:37.112Z,45.83
2023-05-21T23:48:03.840Z,45.65
2023-05-21T23:50:30.450Z,45.62
2023-05-21T23:52:57.032Z,45.92
2023-05-21T23:55:23.614Z,45.46
2023-05-21T23:57:50.189Z,45.75
